الصفحة الرئيسية
METAR-TAF:

METAR-TAF

مطار :

مطار ساموي

جزيرة ساموي, تايلاند

دائرة عرض: 09-32-52N, خط طول: 100-03-44E, ارتفاع: 20 متر

مراقبة الطقس الحالي

تاريخ ووقت الإصدار 43 دقيقة قبل الساعة 22:00UTC
رياح هادئة
درجة الحرارة 27°درجة مئوية
الرطوبة 84%
ضغط 1008 hPa
الرؤية 10 كم أو أكثر
غيوم قليلة على ارتفاع 2000 قدم

METAR: VTSM 022200Z 00000KT 9999 FEW020 27/24 Q1008 NOSIG

زمن: 05:43 (22:43 UTC)

توقعات

تاريخ ووقت الإصدار 5ساعات و 43 دقيقة قبل الساعة 17:00UTC
التوقعات صالحة من02 الساعة 18 UTC إلى 03 الساعة 18 UTC
ريح 5 عقدة من الغرب
الرؤية 10 كم أو أكثر
غيوم قليلة على ارتفاع 2000 قدم
مؤقت
من 03 الساعة 08 UTC إلى 03 الساعة 14 UTC
ريح 10 عقدة من الغرب/الشمال الغربي تتزايد حتى 20 عقدة
الرؤية: 5000 متر
غيوم قليلة على ارتفاع 1600 قدم, مزنة ركامية.
غيوم متفرقة على ارتفاع 1800 قدم
غيوم مفككة على ارتفاع 10000 قدم
عاصفة رعدية, مطر

TAF: VTSM 021700Z 0218/0318 28005KT 9999 FEW020 TEMPO 0308/0314 30010G20KT 5000 TSRA FEW016CB SCT018 BKN100

أرصاد الطقس والتوقعات من أكثر من 4000 مطار (تقارير الطقس للمطار METAR والتنبؤ بالطقس بالمطارTAF).

المحطات المتاحة هي النقط الصفراء والحمراء على الخريطة.

حرك المؤشر فوق النقطة لمعرفة اسم المحطة.

ثم انقر لمعرفة أرصاد وتوقعات الطقس.

لتغيير الخارطة: اضغط على الأزرار الخضراء مع رمز الصليب الأسود للتكبير. على الزر الأخضر مع شرطة للتصغير، أو على الأسهم الخضراء للخرائط المجاورة.


METAR-TAF: